Terminal Aerodrome Forecast
Issued by NWS

Current Version | Previous Version | Graphics & Text | Print | Product List | Glossary On
Versions: 1 2 3 4 5 6 7 8 9 10 11 12 13 14
989
FTUS41 KPBZ 200520
TAFHLG
TAF
KHLG 200520Z 2006/2106 23006KT P6SM SCT090
     FM201600 25010G19KT P6SM SCT090
     FM210000 24005KT P6SM SKC=

USA.gov is the U.S. government's official web portal to all federal, state and local government web resources and services.